To NAV CANADA Home Page Login to a new session Search on AWWS site Feedback and Comments Disclaimer Vers la page française équivalente Tips FAQ What's new on the site To the Forecasts and Observations / NOTAM section To "File a Flight Plan" website Publications and other links Update of the User's profile FIC Telephone Numbers My Weather Data Folder Route Weather Data Regional Weather Data Local Weather Data To the Forecasts and Observations / NOTAM section
Request Generated 07/27/2016 at 02:54:44 UTC . Weather information available at that time is displayed.

METAR/TAF

EUREKA/NU    

METAR CWEU 270200Z 16014KT 15SM FEW025 FEW040 BKN070 07/02 A2986 RMK
SC1SC1AS7 SC TR SC TR SLP115=
METAR CWEU 270100Z 14014KT 15SM FEW025 FEW040 BKN070 08/02 A2986 RMK
SC1SC2AS5 SC TR SLP115=
METAR CWEU 270000Z 14011G17KT 15SM FEW030 SCT040 BKN070 08/02 A2985
RMK SC1SC4AS3 SC TR SLP112=

*** REMARK        : Forecast period has ended; this was the last TAF issued
*** REMARQUE : La période de prévision est échue; ceci était le dernier TAF qui a été émis
TAF CYEU 262338Z 2700/2702 ADVISORY OFFSITE 13012KT P6SM BKN030
RMK NXT FCST WILL BE ISSUED AT 271045Z=
Your time UTC time
Weather data provided by Environment Canada and NAV CANADA